Terminal Aerodrome Forecast
Issued by NWS Newport/Morehead City, NC

Home | Current Version | Previous Version | Graphics & Text | Print | Product List | Glossary On
Versions: 1 2 3 4 5 6 7 8 9 10 11 12 13 14 15 16 17 18 19 20 21
318
FTUS42 KMHX 170532
TAFEWN
TAF
KEWN 170532Z 1706/1806 03005KT P6SM SCT080
     FM170900 VRB04KT P6SM VCSH BKN008 OVC070
     FM171600 02006KT P6SM VCSH SCT008 OVC025
     FM172000 04008KT P6SM OVC035
     FM180500 02006KT P6SM SCT003=

USA.gov is the U.S. government's official web portal to all federal, state and local government web resources and services.